Time;durP1;ratioP1;P1;durP2;ratioP2;P2;SDS_P1;SDS_P2;PMS_P1;PMS_P2;Temp;Humidity;BMP_temperature;BMP_pressure;BME280_temperature;BME280_humidity;BME280_pressure;Samples;Min_cycle;Max_cycle;Signal;HPM_P1;HPM_P2
2021/12/28 00:04:22;;;;;;;22.20;14.82;;;4.60;99.90;;;;;;12408344;28;20050;-88
2021/12/28 00:10:24;;;;;;;25.20;14.02;;;4.60;99.90;;;;;;12407323;28;20699;-86
2021/12/28 00:17:58;;;;;;;22.10;13.82;;;4.60;99.90;;;;;;12404239;28;20122;-88
2021/12/28 00:22:53;;;;;;;22.08;14.23;;;4.60;99.90;;;;;;12417698;28;20130;-86
2021/12/28 00:28:55;;;;;;;20.58;13.75;;;4.60;99.90;;;;;;12407499;28;20090;-89
2021/12/28 00:34:57;;;;;;;21.13;12.95;;;4.60;99.90;;;;;;12416042;28;20565;-89
2021/12/28 00:41:01;;;;;;;23.00;13.25;;;4.80;99.90;;;;;;12403021;28;20080;-86
2021/12/28 00:47:03;;;;;;;18.48;12.40;;;4.70;99.90;;;;;;12413849;28;20107;-88
2021/12/28 00:53:05;;;;;;;20.33;12.50;;;4.70;99.90;;;;;;12411484;28;20042;-89
2021/12/28 00:59:08;;;;;;;18.25;12.18;;;4.70;99.90;;;;;;12405310;28;20133;-89
2021/12/28 01:05:11;;;;;;;18.17;11.65;;;4.70;99.90;;;;;;12429842;28;20533;-88
2021/12/28 01:11:13;;;;;;;18.35;12.38;;;4.70;99.90;;;;;;12410217;28;20148;-86
2021/12/28 01:17:15;;;;;;;19.05;11.68;;;4.70;99.90;;;;;;12416922;28;20133;-88
2021/12/28 01:23:18;;;;;;;16.40;10.43;;;4.70;99.90;;;;;;12408528;28;20080;-86
2021/12/28 01:29:20;;;;;;;16.83;10.95;;;4.70;99.90;;;;;;12414474;28;20097;-85
2021/12/28 01:35:22;;;;;;;16.02;10.02;;;4.70;99.90;;;;;;12426732;28;20092;-85
2021/12/28 01:41:24;;;;;;;14.25;9.45;;;4.80;99.90;;;;;;12413220;28;20624;-87
2021/12/28 01:47:27;;;;;;;14.73;9.93;;;4.90;99.90;;;;;;12414857;28;20077;-85
2021/12/28 01:53:30;;;;;;;16.83;10.43;;;4.90;99.90;;;;;;12424032;28;20058;-88
2021/12/28 01:59:32;;;;;;;17.15;10.82;;;4.90;99.90;;;;;;12406438;28;20042;-85
2021/12/28 02:05:34;;;;;;;18.30;11.13;;;5.00;99.90;;;;;;12405047;28;20081;-88
2021/12/28 02:11:37;;;;;;;19.83;12.73;;;4.90;99.90;;;;;;12408246;28;20042;-88
2021/12/28 02:17:40;;;;;;;19.33;12.57;;;4.80;99.90;;;;;;12421840;28;20050;-88
2021/12/28 02:23:43;;;;;;;20.38;12.13;;;4.80;99.90;;;;;;12407667;28;20049;-86
2021/12/28 02:29:44;;;;;;;20.30;12.80;;;4.90;99.90;;;;;;12397494;28;20076;-88
2021/12/28 02:35:47;;;;;;;19.63;11.73;;;4.90;99.90;;;;;;12421259;28;20052;-86
2021/12/28 02:41:49;;;;;;;18.92;10.63;;;5.00;99.90;;;;;;12419113;28;20141;-87
2021/12/28 02:47:51;;;;;;;17.45;10.80;;;4.90;99.90;;;;;;12410351;28;20464;-87
2021/12/28 02:53:53;;;;;;;15.48;9.13;;;4.90;99.90;;;;;;12430452;28;20121;-86
2021/12/28 02:59:55;;;;;;;15.60;9.40;;;4.90;99.90;;;;;;12409151;28;20096;-86
2021/12/28 03:06:00;;;;;;;14.30;9.55;;;5.00;99.90;;;;;;12412390;28;20099;-86
2021/12/28 03:12:03;;;;;;;13.73;9.07;;;5.10;99.90;;;;;;12406020;28;20085;-88
2021/12/28 03:18:05;;;;;;;14.50;9.48;;;5.20;99.90;;;;;;12401243;28;20149;-87
2021/12/28 03:24:09;;;;;;;13.73;8.88;;;5.20;99.90;;;;;;12406088;28;20144;-88
2021/12/28 03:30:14;;;;;;;21.30;10.77;;;5.10;99.90;;;;;;12420757;28;20054;-86
2021/12/28 03:36:17;;;;;;;13.70;9.02;;;5.00;99.90;;;;;;12417813;28;20191;-86
2021/12/28 03:42:19;;;;;;;12.52;7.57;;;4.90;99.90;;;;;;12404940;28;20065;-86
2021/12/28 03:48:21;;;;;;;12.85;7.53;;;4.60;99.90;;;;;;12401605;28;20133;-85
2021/12/28 03:54:23;;;;;;;13.25;7.90;;;4.50;99.90;;;;;;12424877;28;20422;-88
2021/12/28 04:00:24;;;;;;;12.43;7.30;;;4.40;99.90;;;;;;12412836;28;20089;-88
2021/12/28 04:06:27;;;;;;;12.68;8.05;;;4.50;99.90;;;;;;12425474;28;20125;-86
2021/12/28 04:12:30;;;;;;;16.48;8.68;;;4.70;99.90;;;;;;12407020;28;20086;-86
2021/12/28 04:18:32;;;;;;;16.70;8.90;;;4.90;99.90;;;;;;12418197;28;20084;-88
2021/12/28 04:24:34;;;;;;;14.07;8.02;;;4.90;99.90;;;;;;12413598;28;20095;-89
2021/12/28 04:30:55;;;;;;;15.23;8.32;;;4.90;99.90;;;;;;12427606;28;20483;-88
2021/12/28 04:36:57;;;;;;;13.77;7.68;;;5.00;99.90;;;;;;12439706;28;20127;-85
2021/12/28 04:43:00;;;;;;;15.68;7.75;;;4.90;99.90;;;;;;12403495;28;20050;-88
2021/12/28 04:49:02;;;;;;;17.08;8.40;;;4.80;99.90;;;;;;12407808;28;20557;-87
2021/12/28 04:55:12;;;;;;;16.30;8.52;;;4.90;99.90;;;;;;12404293;28;20569;-86
2021/12/28 05:01:14;;;;;;;17.38;8.15;;;4.90;99.90;;;;;;12406262;28;20136;-86
2021/12/28 05:07:16;;;;;;;13.20;7.80;;;5.00;99.90;;;;;;12408892;28;20177;-87
2021/12/28 05:13:18;;;;;;;15.48;8.02;;;5.10;99.90;;;;;;12405486;28;20061;-86
2021/12/28 05:19:20;;;;;;;14.00;7.55;;;5.10;99.90;;;;;;12405005;28;20171;-86
2021/12/28 05:25:23;;;;;;;20.73;8.43;;;5.20;99.90;;;;;;12403952;28;20038;-88
2021/12/28 05:31:25;;;;;;;15.90;7.50;;;5.10;99.90;;;;;;12412154;28;20073;-85
2021/12/28 05:37:27;;;;;;;17.88;8.27;;;5.10;99.90;;;;;;12405119;28;20061;-88
2021/12/28 05:43:29;;;;;;;16.00;8.35;;;5.10;99.90;;;;;;12415528;28;20046;-88
2021/12/28 05:49:31;;;;;;;16.77;8.55;;;5.20;99.90;;;;;;12399771;28;20092;-89
2021/12/28 05:55:33;;;;;;;21.80;9.30;;;5.30;99.90;;;;;;12404194;28;20152;-86
2021/12/28 06:01:37;;;;;;;19.08;7.63;;;5.40;99.90;;;;;;12411828;28;20053;-85
2021/12/28 06:07:39;;;;;;;14.85;7.55;;;5.30;99.90;;;;;;12365928;28;20137;-85
2021/12/28 06:13:41;;;;;;;18.35;7.85;;;5.30;99.90;;;;;;12412992;28;20463;-86
2021/12/28 06:19:43;;;;;;;18.92;8.02;;;5.20;99.90;;;;;;12413348;28;20101;-85
2021/12/28 06:25:45;;;;;;;20.85;8.30;;;5.40;99.90;;;;;;12426487;28;20076;-88
2021/12/28 06:31:49;;;;;;;17.37;7.47;;;5.50;99.90;;;;;;12407050;28;20045;-88
2021/12/28 06:37:51;;;;;;;17.17;7.90;;;5.40;99.90;;;;;;12404906;28;20081;-85
2021/12/28 06:43:53;;;;;;;20.52;7.60;;;5.30;99.90;;;;;;12399007;28;20137;-87
2021/12/28 06:49:55;;;;;;;20.33;7.88;;;5.40;99.90;;;;;;12417740;28;20744;-86
2021/12/28 06:55:57;;;;;;;22.15;8.93;;;5.70;99.90;;;;;;12403296;28;20170;-85
2021/12/28 07:02:00;;;;;;;20.83;9.35;;;5.70;99.90;;;;;;12413896;28;20054;-87
2021/12/28 07:08:02;;;;;;;23.35;9.30;;;5.80;99.90;;;;;;12407940;28;20821;-86
2021/12/28 07:14:04;;;;;;;19.63;10.07;;;5.90;99.90;;;;;;12417416;28;20141;-88
2021/12/28 07:20:08;;;;;;;22.55;9.98;;;5.90;99.90;;;;;;12403322;28;20061;-88
2021/12/28 07:26:11;;;;;;;19.33;9.05;;;6.00;99.90;;;;;;12425766;28;20053;-86
2021/12/28 07:32:13;;;;;;;23.42;9.25;;;6.00;99.90;;;;;;12410960;28;20115;-86
2021/12/28 07:38:15;;;;;;;19.85;8.38;;;6.10;99.90;;;;;;12403081;28;20073;-87
2021/12/28 07:44:17;;;;;;;23.13;9.07;;;6.20;99.90;;;;;;12393162;28;20449;-89
2021/12/28 07:50:19;;;;;;;18.73;8.77;;;6.10;99.90;;;;;;12393648;28;20102;-86
2021/12/28 07:56:21;;;;;;;18.92;8.40;;;6.00;99.90;;;;;;12395675;28;20180;-88
2021/12/28 08:02:24;;;;;;;20.63;9.27;;;5.90;99.90;;;;;;12396331;28;20164;-88
2021/12/28 08:08:26;;;;;;;22.15;9.25;;;5.90;99.90;;;;;;12400689;28;20057;-88
2021/12/28 08:14:28;;;;;;;17.38;8.32;;;6.00;99.90;;;;;;12400044;28;20141;-88
2021/12/28 08:20:31;;;;;;;19.67;8.25;;;6.00;99.90;;;;;;12401530;28;20049;-89
2021/12/28 08:26:33;;;;;;;21.02;9.25;;;6.10;99.90;;;;;;12411510;28;20085;-86
2021/12/28 08:32:35;;;;;;;23.45;9.32;;;6.30;99.90;;;;;;12396449;28;20597;-88
2021/12/28 08:38:39;;;;;;;20.63;8.68;;;6.40;99.90;;;;;;12399292;28;20053;-87
2021/12/28 08:44:41;;;;;;;23.30;9.60;;;6.60;99.90;;;;;;12413914;28;20145;-86
2021/12/28 08:50:43;;;;;;;18.27;8.73;;;6.60;99.90;;;;;;12398541;28;20561;-88
2021/12/28 08:56:46;;;;;;;21.65;10.63;;;6.80;99.90;;;;;;12406552;28;20054;-86
2021/12/28 09:02:49;;;;;;;19.83;9.25;;;6.80;99.90;;;;;;12415661;28;20532;-88
2021/12/28 09:08:52;;;;;;;21.33;9.53;;;6.80;99.90;;;;;;12404213;28;20383;-87
2021/12/28 09:14:54;;;;;;;17.58;8.82;;;6.80;99.90;;;;;;12414495;28;20050;-88
2021/12/28 09:20:57;;;;;;;26.92;9.70;;;6.80;99.90;;;;;;12395675;28;20050;-88
2021/12/28 09:26:59;;;;;;;17.88;8.35;;;6.80;99.90;;;;;;12394512;28;20417;-88
2021/12/28 09:33:01;;;;;;;20.23;8.38;;;6.80;99.90;;;;;;12401869;28;20085;-89
2021/12/28 09:39:03;;;;;;;19.80;7.55;;;6.90;99.90;;;;;;12405923;28;20065;-88
2021/12/28 09:45:06;;;;;;;17.25;6.22;;;7.00;99.90;;;;;;12404172;28;20034;-87
2021/12/28 09:51:08;;;;;;;15.95;6.70;;;7.10;99.90;;;;;;12409957;28;20045;-88
2021/12/28 09:57:15;;;;;;;15.32;6.90;;;7.00;99.90;;;;;;12413656;28;20045;-86
2021/12/28 10:03:17;;;;;;;17.05;6.55;;;7.00;99.90;;;;;;12431437;28;20058;-88
2021/12/28 10:09:22;;;;;;;16.48;6.32;;;7.10;99.90;;;;;;12415465;28;20417;-88
2021/12/28 10:15:27;;;;;;;;;;;7.20;99.90;;;;;;12429205;28;20050;-86
2021/12/28 10:21:29;;;;;;;14.25;5.20;;;7.30;99.90;;;;;;12430896;28;20023;-86
2021/12/28 10:27:32;;;;;;;14.57;5.40;;;7.30;99.90;;;;;;12414717;28;20141;-88
2021/12/28 10:33:37;;;;;;;14.48;5.68;;;7.10;99.90;;;;;;12415529;28;20050;-86
2021/12/28 10:39:48;;;;;;;14.45;5.22;;;7.10;99.90;;;;;;12409607;28;20212;-87
2021/12/28 10:46:05;;;;;;;15.15;4.72;;;7.10;99.90;;;;;;12409273;28;20039;-86
2021/12/28 10:52:33;;;;;;;11.18;4.38;;;7.20;99.90;;;;;;12414186;28;20151;-86
2021/12/28 10:58:41;;;;;;;11.15;4.05;;;7.30;99.90;;;;;;12411840;28;20054;-88
2021/12/28 11:04:43;;;;;;;13.32;4.70;;;7.30;99.90;;;;;;12415150;28;20471;-88
2021/12/28 11:10:52;;;;;;;11.88;4.65;;;7.20;99.90;;;;;;12421130;28;20115;-87
2021/12/28 11:17:02;;;;;;;10.50;4.72;;;7.30;99.90;;;;;;12413098;28;20169;-88
2021/12/28 11:23:15;;;;;;;10.57;4.20;;;7.20;99.90;;;;;;12409074;28;20107;-86
2021/12/28 11:29:37;;;;;;;11.50;4.28;;;7.20;99.90;;;;;;12419379;28;20144;-88
2021/12/28 11:35:39;;;;;;;9.43;3.80;;;7.40;99.90;;;;;;12400533;28;20950;-88
2021/12/28 11:41:42;;;;;;;12.05;3.60;;;7.40;99.90;;;;;;12402149;28;20091;-86
2021/12/28 11:47:44;;;;;;;10.75;3.47;;;7.60;99.90;;;;;;12412437;28;20072;-85
2021/12/28 11:53:48;;;;;;;6.85;2.95;;;7.60;99.90;;;;;;12413880;28;20096;-87
2021/12/28 11:59:58;;;;;;;6.32;3.38;;;7.50;99.90;;;;;;12424277;28;20141;-86
2021/12/28 12:06:00;;;;;;;9.60;3.58;;;7.40;99.90;;;;;;12388769;28;20069;-85
2021/12/28 12:12:08;;;;;;;6.90;3.38;;;7.30;99.90;;;;;;12400998;28;20076;-86
2021/12/28 12:18:13;;;;;;;10.30;3.25;;;7.50;99.90;;;;;;12425763;28;20399;-86
2021/12/28 12:24:39;;;;;;;8.93;3.03;;;7.60;99.90;;;;;;12560431;27;20183;-38
2021/12/28 12:30:49;;;;;;;7.55;2.60;;;7.80;99.90;;;;;;12555353;28;20044;-37
2021/12/28 12:36:51;;;;;;;4.40;2.15;;;7.90;99.90;;;;;;12557269;28;20040;-41
2021/12/28 12:43:14;;;;;;;5.68;2.08;;;7.80;99.90;;;;;;12554128;28;20060;-39
2021/12/28 12:49:22;;;;;;;7.05;2.58;;;7.90;99.90;;;;;;12555055;28;20045;-38
2021/12/28 12:55:34;;;;;;;8.00;2.40;;;8.00;99.90;;;;;;12550465;28;20045;-39
2021/12/28 13:01:39;;;;;;;4.13;1.48;;;8.10;99.90;;;;;;12551737;28;20496;-40
2021/12/28 13:07:42;;;;;;;3.88;1.80;;;8.10;99.90;;;;;;12553364;28;20143;-40
2021/12/28 13:13:48;;;;;;;4.03;2.13;;;8.20;99.90;;;;;;12552438;28;20083;-40
2021/12/28 13:20:14;;;;;;;5.38;2.22;;;8.00;99.90;;;;;;12551696;28;20063;-39
2021/12/28 13:26:16;;;;;;;3.90;1.60;;;7.80;99.90;;;;;;12551907;28;20095;-39
2021/12/28 13:32:30;;;;;;;4.38;1.98;;;7.70;99.90;;;;;;12537722;28;20131;-40
2021/12/28 13:38:32;;;;;;;4.65;2.00;;;7.60;99.90;;;;;;12519150;28;20461;-39
2021/12/28 13:44:42;;;;;;;5.40;2.10;;;7.50;99.90;;;;;;12517825;28;20056;-40
2021/12/28 13:50:56;;;;;;;2.83;1.70;;;7.50;99.90;;;;;;12516550;28;20049;-38
2021/12/28 13:56:57;;;;;;;2.88;1.60;;;7.50;99.90;;;;;;12516440;28;20044;-38
2021/12/28 14:03:06;;;;;;;3.60;1.85;;;7.50;99.90;;;;;;12516476;28;20067;-40
2021/12/28 14:09:11;;;;;;;6.40;1.73;;;7.50;99.90;;;;;;12515747;28;20106;-39
2021/12/28 14:15:13;;;;;;;;;;;7.40;99.90;;;;;;12515009;28;20696;-39
2021/12/28 14:21:27;;;;;;;4.60;2.00;;;7.40;99.90;;;;;;12513855;28;20561;-40
2021/12/28 14:27:39;;;;;;;5.07;2.20;;;7.40;99.90;;;;;;12518699;28;20084;-39
2021/12/28 14:33:59;;;;;;;4.13;2.40;;;7.40;99.90;;;;;;12526246;28;20561;-40
2021/12/28 14:40:11;;;;;;;5.38;2.45;;;7.30;99.90;;;;;;12524084;28;20481;-39
2021/12/28 14:46:32;;;;;;;4.88;2.70;;;7.20;99.90;;;;;;12522385;28;20037;-40
2021/12/28 14:52:37;;;;;;;6.40;2.20;;;7.30;99.90;;;;;;12516236;28;20053;-40
2021/12/28 14:58:40;;;;;;;3.65;2.28;;;7.30;99.90;;;;;;12521794;28;20049;-41
2021/12/28 15:05:05;;;;;;;4.90;2.35;;;7.40;99.90;;;;;;12524297;28;20041;-38
2021/12/28 15:11:08;;;;;;;5.35;2.92;;;7.50;99.90;;;;;;12525793;28;20049;-40
2021/12/28 15:17:36;;;;;;;5.35;3.05;;;7.40;99.90;;;;;;12526293;28;20080;-39
2021/12/28 15:30:26;;;;;;;8.13;4.07;;;7.50;99.90;;;;;;12505585;28;20057;-39
2021/12/28 15:36:28;;;;;;;13.70;4.25;;;7.60;99.90;;;;;;12514249;28;20057;-39
2021/12/28 15:42:32;;;;;;;13.52;3.85;;;7.70;99.90;;;;;;12517112;28;20080;-40
2021/12/28 15:48:39;;;;;;;13.33;4.50;;;7.70;99.90;;;;;;12523184;28;20436;-40
2021/12/28 15:54:57;;;;;;;15.82;4.75;;;7.70;99.90;;;;;;12524838;28;20172;-38
2021/12/28 16:01:17;;;;;;;21.30;6.30;;;7.70;99.90;;;;;;12524986;28;20054;-39
2021/12/28 16:07:35;;;;;;;15.68;4.72;;;7.70;99.90;;;;;;12529078;28;20055;-40
2021/12/28 16:13:48;;;;;;;19.65;5.88;;;7.70;99.90;;;;;;12514641;28;20845;-38
2021/12/28 16:20:05;;;;;;;25.90;5.50;;;7.80;99.90;;;;;;12523551;28;20061;-38
2021/12/28 16:26:33;;;;;;;21.75;4.65;;;7.90;99.90;;;;;;12526976;28;20046;-39
2021/12/28 16:32:55;;;;;;;19.58;5.03;;;7.90;99.90;;;;;;12527781;28;20052;-39
2021/12/28 16:39:17;;;;;;;16.88;5.20;;;7.90;99.90;;;;;;12511142;28;20045;-40
2021/12/28 16:45:38;;;;;;;24.80;4.80;;;7.80;99.90;;;;;;12526268;28;20394;-38
2021/12/28 16:52:02;;;;;;;24.08;5.28;;;7.50;99.90;;;;;;12522301;28;20045;-38
2021/12/28 16:58:23;;;;;;;17.45;5.32;;;7.50;99.90;;;;;;12526102;28;20045;-39
2021/12/28 17:04:59;;;;;;;18.48;5.25;;;7.30;99.90;;;;;;12512733;28;20079;-38
2021/12/28 17:11:19;;;;;;;20.98;5.07;;;7.30;99.90;;;;;;12520106;28;20456;-39
2021/12/28 17:17:35;;;;;;;18.98;4.38;;;7.20;99.90;;;;;;12534719;28;20041;-40
2021/12/28 17:23:56;;;;;;;24.52;6.05;;;7.20;99.90;;;;;;12533570;28;20053;-39
2021/12/28 17:30:19;;;;;;;22.85;5.45;;;7.20;99.90;;;;;;12533473;28;20052;-39
2021/12/28 17:36:41;;;;;;;33.78;7.95;;;7.30;99.90;;;;;;12529099;28;20041;-38
2021/12/28 17:42:55;;;;;;;24.58;4.53;;;7.40;99.90;;;;;;12531665;28;20132;-39
2021/12/28 17:49:06;;;;;;;26.25;4.68;;;7.40;99.90;;;;;;12534382;28;20128;-39
2021/12/28 17:55:23;;;;;;;15.50;3.38;;;7.40;99.90;;;;;;12533013;28;20045;-39
2021/12/28 18:01:46;;;;;;;18.90;3.33;;;7.30;99.90;;;;;;12537846;28;20045;-39
2021/12/28 18:07:55;;;;;;;18.30;3.17;;;7.20;99.90;;;;;;12534450;28;20052;-38
2021/12/28 18:14:05;;;;;;;12.52;3.33;;;7.10;99.90;;;;;;12532624;28;20432;-39
2021/12/28 18:20:28;;;;;;;12.90;2.50;;;7.00;99.90;;;;;;12518532;28;20056;-38
2021/12/28 18:26:39;;;;;;;16.38;2.45;;;7.00;99.90;;;;;;12510011;28;20128;-38
2021/12/28 18:32:56;;;;;;;10.40;2.60;;;6.90;99.90;;;;;;12515814;28;20402;-38
2021/12/28 18:39:07;;;;;;;12.75;2.38;;;6.90;99.90;;;;;;12518123;28;20049;-38
2021/12/28 18:45:15;;;;;;;13.27;2.60;;;6.90;99.90;;;;;;12517130;28;20492;-39
2021/12/28 18:51:26;;;;;;;13.27;2.58;;;6.80;99.90;;;;;;12528115;28;20098;-39
2021/12/28 18:57:44;;;;;;;9.57;2.55;;;6.70;99.90;;;;;;12534687;28;20689;-39
2021/12/28 19:04:03;;;;;;;11.38;3.03;;;6.60;99.90;;;;;;12515861;28;20135;-38
2021/12/28 19:10:22;;;;;;;12.07;2.97;;;6.50;99.90;;;;;;12520643;28;20083;-39
2021/12/28 19:16:42;;;;;;;10.85;3.08;;;6.50;99.90;;;;;;12515011;28;20110;-38
2021/12/28 19:22:51;;;;;;;12.63;2.65;;;6.40;99.90;;;;;;12531441;28;20053;-40
2021/12/28 19:29:03;;;;;;;9.95;2.20;;;6.40;99.90;;;;;;12507673;28;20497;-38
2021/12/28 19:35:17;;;;;;;8.95;2.28;;;6.40;99.90;;;;;;12520354;28;20132;-41
2021/12/28 19:41:37;;;;;;;7.30;1.80;;;6.40;99.90;;;;;;12521399;28;20489;-37
2021/12/28 19:47:55;;;;;;;7.07;1.90;;;6.50;99.90;;;;;;12529811;28;20084;-38
2021/12/28 19:54:18;;;;;;;8.80;1.60;;;6.40;99.90;;;;;;12527089;28;20052;-39
2021/12/28 20:00:37;;;;;;;7.90;1.83;;;6.40;99.90;;;;;;12513528;28;20381;-39
2021/12/28 20:06:50;;;;;;;8.75;2.42;;;6.30;99.90;;;;;;12529480;28;20098;-39
2021/12/28 20:13:11;;;;;;;5.68;2.08;;;6.20;99.90;;;;;;12528446;28;20501;-40
2021/12/28 20:19:26;;;;;;;5.15;1.65;;;6.20;99.90;;;;;;12526879;28;20049;-40
2021/12/28 20:25:35;;;;;;;7.13;1.50;;;6.20;99.90;;;;;;12519046;28;20052;-38
2021/12/28 20:31:45;;;;;;;6.35;1.60;;;6.20;99.90;;;;;;12527144;28;20048;-38
2021/12/28 20:37:55;;;;;;;5.10;1.50;;;6.10;99.90;;;;;;12521502;28;20144;-39
2021/12/28 20:44:05;;;;;;;6.43;1.33;;;6.00;99.90;;;;;;12532123;28;20538;-40
2021/12/28 20:50:21;;;;;;;8.10;1.60;;;5.90;99.90;;;;;;12512559;28;20052;-39
2021/12/28 20:56:36;;;;;;;;;;;5.80;99.90;;;;;;12535885;28;20567;-39
2021/12/28 21:02:47;;;;;;;5.65;2.05;;;5.80;99.90;;;;;;12520891;28;19952;-39
2021/12/28 21:08:58;;;;;;;5.18;2.30;;;5.90;99.90;;;;;;12537161;28;20068;-39
2021/12/28 21:15:11;;;;;;;5.82;2.30;;;6.00;99.90;;;;;;12531239;28;20081;-39
2021/12/28 21:21:25;;;;;;;5.60;2.50;;;6.00;99.90;;;;;;12510489;28;20045;-38
2021/12/28 21:27:37;;;;;;;5.95;2.80;;;6.00;99.90;;;;;;12531424;28;20052;-39
2021/12/28 21:33:47;;;;;;;5.80;2.70;;;5.90;99.90;;;;;;12532727;28;20072;-39
2021/12/28 21:39:58;;;;;;;5.15;2.55;;;5.90;99.90;;;;;;12531760;28;20599;-40
2021/12/28 21:46:02;;;;;;;9.40;3.92;;;5.90;99.90;;;;;;12531956;28;21741;-40
2021/12/28 21:52:06;;;;;;;9.57;4.07;;;6.00;99.90;;;;;;12527812;28;20064;-38
2021/12/28 21:58:11;;;;;;;9.35;4.32;;;6.10;99.90;;;;;;12532111;28;20049;-40
2021/12/28 22:04:18;;;;;;;8.57;4.72;;;6.10;99.90;;;;;;12506893;28;20052;-39
2021/12/28 22:10:23;;;;;;;11.00;5.55;;;6.20;99.90;;;;;;12531489;28;20044;-38
2021/12/28 22:16:32;;;;;;;14.32;6.75;;;6.10;99.90;;;;;;12529610;28;20048;-39
2021/12/28 22:22:34;;;;;;;15.43;8.52;;;5.90;99.90;;;;;;12528524;28;20060;-38
2021/12/28 22:28:37;;;;;;;16.52;9.85;;;5.70;99.90;;;;;;12531067;28;20460;-39
2021/12/28 22:34:45;;;;;;;21.45;12.35;;;5.70;99.90;;;;;;12527732;28;20104;-40
2021/12/28 22:40:53;;;;;;;23.33;13.73;;;5.80;99.90;;;;;;12536032;28;20044;-39
2021/12/28 22:47:00;;;;;;;22.58;13.23;;;5.80;99.90;;;;;;12533417;28;20049;-39
2021/12/28 22:53:05;;;;;;;27.77;15.52;;;5.80;99.90;;;;;;12523658;28;20126;-41
2021/12/28 22:59:08;;;;;;;26.63;14.55;;;5.90;99.90;;;;;;12532122;28;20087;-38
2021/12/28 23:05:18;;;;;;;26.83;16.10;;;6.00;99.90;;;;;;12531213;28;20041;-38
2021/12/28 23:11:32;;;;;;;30.73;17.02;;;6.10;99.90;;;;;;12526111;28;20048;-41
2021/12/28 23:17:40;;;;;;;34.92;18.42;;;6.20;99.90;;;;;;12524805;28;20056;-40
2021/12/28 23:23:50;;;;;;;33.90;19.15;;;6.20;99.90;;;;;;12516894;28;20053;-40
2021/12/28 23:29:53;;;;;;;36.17;19.85;;;6.20;99.90;;;;;;12509671;28;20045;-39
2021/12/28 23:35:56;;;;;;;31.52;19.40;;;6.20;99.90;;;;;;12526565;28;20084;-39
2021/12/28 23:42:00;;;;;;;33.37;19.60;;;6.10;99.90;;;;;;12527315;28;20045;-41
2021/12/28 23:48:03;;;;;;;36.75;20.67;;;6.10;99.90;;;;;;12527903;28;20653;-40
2021/12/28 23:54:10;;;;;;;45.35;21.52;;;6.10;99.90;;;;;;12526862;28;20049;-39
